createdAt,value
2017-10-29T00:00:05.213Z,14.19
2017-10-29T00:01:14.430Z,14.12
2017-10-29T00:02:22.999Z,14.2
2017-10-29T00:03:31.877Z,14.16
2017-10-29T00:04:40.755Z,14.13
2017-10-29T00:05:49.977Z,14.11
2017-10-29T00:06:58.853Z,14.23
2017-10-29T00:08:07.730Z,14.15
2017-10-29T00:09:16.951Z,14.2
2017-10-29T00:10:26.164Z,14.11
2017-10-29T00:11:34.711Z,14.08
2017-10-29T00:12:43.590Z,14.15
2017-10-29T00:13:52.135Z,14.16
2017-10-29T00:15:01.008Z,14.01
2017-10-29T00:16:09.939Z,14.2
2017-10-29T00:17:18.476Z,14.08
2017-10-29T00:18:27.356Z,14.15
2017-10-29T00:19:36.234Z,14.23
2017-10-29T00:20:44.779Z,14.15
2017-10-29T00:21:53.996Z,14.12
2017-10-29T00:23:03.561Z,14.12
2017-10-29T00:24:13.146Z,14.2
2017-10-29T00:25:21.691Z,14.2
2017-10-29T00:26:30.680Z,14.2
2017-10-29T00:27:39.429Z,14.13
2017-10-29T00:28:48.649Z,14.13
2017-10-29T00:29:57.184Z,14.19
2017-10-29T00:31:06.060Z,14.05
2017-10-29T00:32:15.282Z,14.13
2017-10-29T00:33:24.160Z,14.02
2017-10-29T00:34:33.371Z,14.16
2017-10-29T00:35:42.247Z,14.13
2017-10-29T00:36:51.482Z,14.02
2017-10-29T00:38:00.388Z,14.15
2017-10-29T00:39:08.927Z,14.08
2017-10-29T00:40:17.805Z,14.19
2017-10-29T00:41:27.023Z,14.16
2017-10-29T00:42:35.904Z,14.15
2017-10-29T00:43:44.777Z,14.01
2017-10-29T00:44:53.322Z,14.13
2017-10-29T00:46:02.195Z,14.13
2017-10-29T00:47:10.734Z,14.16
2017-10-29T00:48:19.612Z,14.09
2017-10-29T00:49:28.152Z,14.12
2017-10-29T00:50:37.028Z,14.15
2017-10-29T00:51:45.568Z,14.13
2017-10-29T00:52:54.108Z,14.13
2017-10-29T00:54:03.325Z,14.05
2017-10-29T00:55:11.868Z,14.12
2017-10-29T00:56:20.747Z,14.15
2017-10-29T00:57:29.287Z,14.16
2017-10-29T00:58:38.168Z,14.09
2017-10-29T00:59:47.049Z,14.05
2017-10-29T01:00:55.935Z,14.23
2017-10-29T01:02:04.815Z,14.19
2017-10-29T01:03:14.031Z,14.19
2017-10-29T01:04:22.912Z,14.2
2017-10-29T01:05:32.476Z,14.16
2017-10-29T01:06:41.020Z,14.24
2017-10-29T01:07:49.566Z,14.19
2017-10-29T01:08:58.109Z,14.15
2017-10-29T01:10:06.650Z,14.16
2017-10-29T01:11:15.539Z,14.12
2017-10-29T01:12:24.078Z,14.23
2017-10-29T01:13:33.006Z,14.13
2017-10-29T01:14:42.936Z,14.23
2017-10-29T01:15:52.188Z,14.08
2017-10-29T01:17:01.069Z,14.24
2017-10-29T01:18:10.286Z,14.15
2017-10-29T01:19:19.504Z,14.2
2017-10-29T01:20:28.718Z,14.2
2017-10-29T01:21:37.592Z,14.23
2017-10-29T01:22:46.134Z,14.16
2017-10-29T01:23:55.011Z,14.13
2017-10-29T01:25:04.229Z,14.09
2017-10-29T01:26:13.102Z,14.13
2017-10-29T01:27:21.980Z,14.11
2017-10-29T01:28:31.535Z,14.19
2017-10-29T01:29:40.410Z,14.11
2017-10-29T01:30:48.947Z,14.13
2017-10-29T01:31:57.492Z,14.01
2017-10-29T01:33:06.710Z,14.08
2017-10-29T01:34:15.590Z,14.16
2017-10-29T01:35:24.805Z,14.16
2017-10-29T01:36:33.345Z,14.21
2017-10-29T01:37:41.887Z,14.05
2017-10-29T01:38:51.104Z,14.11
2017-10-29T01:40:00.659Z,13.99
2017-10-29T01:41:09.541Z,14.12
2017-10-29T01:42:18.754Z,14.12
2017-10-29T01:43:27.294Z,14.08
2017-10-29T01:44:35.833Z,14.06
2017-10-29T01:45:44.712Z,14.11
2017-10-29T01:46:53.253Z,14.2
2017-10-29T01:48:02.130Z,14.12
2017-10-29T01:49:11.008Z,14.11
2017-10-29T01:50:19.885Z,14.11
2017-10-29T01:51:28.766Z,14.15
2017-10-29T01:52:37.646Z,14.15
2017-10-29T01:53:46.624Z,14.12
2017-10-29T01:54:55.510Z,14.15
2017-10-29T01:56:04.722Z,14.13
2017-10-29T01:57:13.261Z,13.99
2017-10-29T01:58:21.805Z,14.15
2017-10-29T01:59:30.344Z,14.01
2017-10-29T02:00:38.885Z,14.13
2017-10-29T02:01:48.107Z,14.16
2017-10-29T02:02:57.655Z,14.11
2017-10-29T02:04:06.200Z,14.16
2017-10-29T02:05:15.749Z,14.09
2017-10-29T02:06:24.974Z,14.11
2017-10-29T02:07:33.851Z,14.03
2017-10-29T02:08:42.730Z,14.09
2017-10-29T02:09:51.606Z,14.12
2017-10-29T02:11:00.487Z,14.13
2017-10-29T02:12:09.369Z,14.11
2017-10-29T02:13:18.585Z,14.08
2017-10-29T02:14:27.151Z,14.03
2017-10-29T02:15:35.664Z,14.09
2017-10-29T02:16:44.204Z,14.05
2017-10-29T02:17:53.767Z,14.11
2017-10-29T02:19:02.650Z,14.05
2017-10-29T02:20:11.199Z,14.11
2017-10-29T02:21:20.424Z,14.08
2017-10-29T02:22:29.303Z,14.09
2017-10-29T02:23:37.848Z,14.01
2017-10-29T02:24:46.726Z,14.11
2017-10-29T02:25:55.264Z,14.09
2017-10-29T02:27:04.146Z,14.01
2017-10-29T02:28:13.017Z,13.94
2017-10-29T02:29:21.898Z,14.03
2017-10-29T02:30:31.115Z,14.01
2017-10-29T02:31:40.335Z,13.97
2017-10-29T02:32:49.210Z,14.03
2017-10-29T02:33:57.784Z,14.03
2017-10-29T02:35:06.994Z,14.01
2017-10-29T02:36:15.537Z,14.08
2017-10-29T02:37:24.419Z,14.03
2017-10-29T02:38:33.299Z,13.94
2017-10-29T02:39:41.843Z,14.08
2017-10-29T02:40:50.725Z,14.01
2017-10-29T02:41:59.943Z,14.03
2017-10-29T02:43:08.488Z,14.01
2017-10-29T02:44:17.032Z,14.03
2017-10-29T02:45:25.906Z,14.08
2017-10-29T02:46:34.447Z,14.05
2017-10-29T02:47:42.988Z,14.09
2017-10-29T02:48:52.571Z,14.06
2017-10-29T02:50:01.427Z,14.02
2017-10-29T02:51:10.318Z,14.05
2017-10-29T02:52:19.562Z,14.08
2017-10-29T02:53:28.438Z,14.02
2017-10-29T02:54:37.324Z,14.08
2017-10-29T02:55:45.866Z,14.02
2017-10-29T02:56:55.089Z,14.03
2017-10-29T02:58:04.311Z,14.05
2017-10-29T02:59:13.190Z,14.03
2017-10-29T03:00:22.065Z,13.97
2017-10-29T03:01:30.940Z,14.02
2017-10-29T03:02:39.484Z,14.01
2017-10-29T03:03:48.029Z,14.01
2017-10-29T03:04:56.574Z,13.97
2017-10-29T03:06:05.119Z,14.03
2017-10-29T03:07:13.663Z,13.97
2017-10-29T03:08:22.201Z,13.9
2017-10-29T03:09:31.078Z,14.02
2017-10-29T03:10:39.620Z,14.01
2017-10-29T03:11:48.833Z,14.02
2017-10-29T03:12:57.372Z,13.99
2017-10-29T03:14:05.912Z,14.02
2017-10-29T03:15:14.791Z,13.99
2017-10-29T03:16:23.336Z,13.99
2017-10-29T03:17:31.873Z,13.95
2017-10-29T03:18:40.416Z,14.01
2017-10-29T03:19:49.297Z,13.99
2017-10-29T03:20:57.839Z,13.97
2017-10-29T03:22:06.720Z,13.97
2017-10-29T03:23:15.598Z,13.94
2017-10-29T03:24:24.138Z,14.03
2017-10-29T03:25:33.012Z,13.97
2017-10-29T03:26:41.890Z,13.93
2017-10-29T03:27:51.103Z,14.01
2017-10-29T03:28:59.642Z,14.01
2017-10-29T03:30:08.528Z,14.03
2017-10-29T03:31:17.771Z,14.06
2017-10-29T03:32:26.648Z,14.03
2017-10-29T03:33:35.524Z,14.01
2017-10-29T03:34:44.397Z,13.95
2017-10-29T03:35:52.937Z,13.76
2017-10-29T03:37:02.149Z,13.65
2017-10-29T03:38:11.025Z,13.58
2017-10-29T03:39:19.569Z,13.48
2017-10-29T03:40:28.107Z,13.31
2017-10-29T03:41:36.986Z,13.28
2017-10-29T03:42:45.864Z,13.28
2017-10-29T03:43:54.405Z,13.21
2017-10-29T03:45:02.949Z,13.24
2017-10-29T03:46:12.162Z,13.19
2017-10-29T03:47:21.050Z,13.17
2017-10-29T03:48:29.593Z,13.14
2017-10-29T03:49:38.463Z,13.13
2017-10-29T03:50:47.347Z,13.13
2017-10-29T03:51:56.225Z,13.09
2017-10-29T03:53:04.767Z,13.13
2017-10-29T03:54:13.990Z,13.07
2017-10-29T03:55:22.871Z,13.1
2017-10-29T03:56:31.748Z,13.09
2017-10-29T03:57:41.306Z,13.06
2017-10-29T03:58:50.520Z,13.1
2017-10-29T03:59:59.732Z,13.1
2017-10-29T04:01:08.949Z,13.01
2017-10-29T04:02:18.165Z,13.01
2017-10-29T04:03:27.377Z,13.1
2017-10-29T04:04:36.257Z,13.01
2017-10-29T04:05:45.131Z,13.1
2017-10-29T04:06:54.010Z,12.92
2017-10-29T04:08:02.549Z,12.95
2017-10-29T04:09:11.425Z,12.84
2017-10-29T04:10:20.303Z,12.83
2017-10-29T04:11:28.844Z,12.78
2017-10-29T04:12:37.382Z,12.77
2017-10-29T04:13:45.923Z,12.73
2017-10-29T04:14:55.472Z,12.71
2017-10-29T04:16:04.348Z,12.66
2017-10-29T04:17:12.892Z,12.62
2017-10-29T04:18:21.435Z,12.66
2017-10-29T04:19:30.308Z,12.63
2017-10-29T04:20:38.848Z,12.65
2017-10-29T04:21:47.398Z,12.56
2017-10-29T04:22:56.270Z,12.62
2017-10-29T04:24:04.809Z,12.56
2017-10-29T04:25:14.029Z,12.52
2017-10-29T04:26:23.239Z,12.55
2017-10-29T04:27:32.118Z,12.55
2017-10-29T04:28:40.993Z,12.44
2017-10-29T04:29:49.870Z,12.51
2017-10-29T04:30:58.745Z,12.43
2017-10-29T04:32:07.958Z,12.41
2017-10-29T04:33:16.500Z,12.34
2017-10-29T04:34:25.383Z,12.28
2017-10-29T04:35:33.921Z,12.23
2017-10-29T04:36:42.513Z,12.13
2017-10-29T04:37:51.058Z,12.16
2017-10-29T04:38:59.933Z,12.16
2017-10-29T04:40:08.812Z,12.05
2017-10-29T04:41:17.692Z,12.11
2017-10-29T04:42:26.914Z,12.03
2017-10-29T04:43:35.458Z,12
2017-10-29T04:44:43.996Z,11.82
2017-10-29T04:45:52.874Z,11.89
2017-10-29T04:47:01.415Z,11.84
2017-10-29T04:48:10.291Z,11.82
2017-10-29T04:49:18.832Z,11.79
2017-10-29T04:50:27.371Z,11.78
2017-10-29T04:51:35.921Z,11.75
2017-10-29T04:52:44.453Z,11.68
2017-10-29T04:53:53.666Z,11.61
2017-10-29T04:55:02.547Z,11.73
2017-10-29T04:56:11.424Z,11.64
2017-10-29T04:57:19.961Z,11.59
2017-10-29T04:58:28.504Z,11.61
2017-10-29T04:59:37.043Z,11.53
2017-10-29T05:00:45.927Z,11.53
2017-10-29T05:01:54.466Z,11.57
2017-10-29T05:03:03.353Z,11.51
2017-10-29T05:04:11.890Z,11.57
2017-10-29T05:05:20.433Z,11.56
2017-10-29T05:06:29.308Z,11.48
2017-10-29T05:07:38.525Z,11.45
2017-10-29T05:08:47.061Z,11.43
2017-10-29T05:09:55.600Z,11.45
2017-10-29T05:11:04.480Z,11.46
2017-10-29T05:12:13.357Z,11.48
2017-10-29T05:13:21.897Z,11.41
2017-10-29T05:14:30.438Z,11.42
2017-10-29T05:15:38.976Z,11.42
2017-10-29T05:16:47.852Z,11.42
2017-10-29T05:17:56.727Z,11.35
2017-10-29T05:19:05.604Z,11.34
2017-10-29T05:20:14.143Z,11.34
2017-10-29T05:21:23.354Z,11.35
2017-10-29T05:22:32.228Z,11.33
2017-10-29T05:23:41.131Z,11.34
2017-10-29T05:24:50.007Z,11.34
2017-10-29T05:25:58.548Z,11.31
2017-10-29T05:27:07.090Z,11.38
2017-10-29T05:28:16.298Z,11.24
2017-10-29T05:29:24.839Z,11.24
2017-10-29T05:30:33.715Z,11.23
2017-10-29T05:31:42.256Z,11.2
2017-10-29T05:32:51.131Z,11.21
2017-10-29T05:34:00.007Z,11.18
2017-10-29T05:35:09.229Z,11.15
2017-10-29T05:36:18.111Z,11.08
2017-10-29T05:37:26.643Z,11.02
2017-10-29T05:38:35.860Z,11.05
2017-10-29T05:39:44.400Z,10.95
2017-10-29T05:40:52.943Z,11
2017-10-29T05:42:01.822Z,10.91
2017-10-29T05:43:10.359Z,11.05
2017-10-29T05:44:18.902Z,11
2017-10-29T05:45:27.773Z,10.98
2017-10-29T05:46:36.648Z,10.95
2017-10-29T05:47:45.525Z,10.94
2017-10-29T05:48:54.398Z,10.9
2017-10-29T05:50:02.937Z,10.85
2017-10-29T05:51:11.475Z,10.77
2017-10-29T05:52:21.027Z,10.73
2017-10-29T05:53:29.905Z,10.79
2017-10-29T05:54:38.780Z,10.73
2017-10-29T05:55:47.321Z,10.66
2017-10-29T05:56:56.535Z,10.7
2017-10-29T05:58:05.409Z,10.72
2017-10-29T05:59:14.623Z,10.72
2017-10-29T06:00:23.838Z,10.63
2017-10-29T06:01:32.716Z,10.7
2017-10-29T06:02:41.254Z,10.65
2017-10-29T06:03:50.468Z,10.59
2017-10-29T06:04:59.344Z,10.58
2017-10-29T06:06:07.886Z,10.61
2017-10-29T06:07:16.762Z,10.55
2017-10-29T06:08:25.302Z,10.54
2017-10-29T06:09:34.191Z,10.47
2017-10-29T06:10:43.724Z,10.55
2017-10-29T06:11:52.608Z,10.47
2017-10-29T06:13:01.148Z,10.54
2017-10-29T06:14:10.362Z,10.57
2017-10-29T06:15:18.899Z,10.46
2017-10-29T06:16:28.119Z,10.44
2017-10-29T06:17:37.000Z,10.49
2017-10-29T06:18:45.879Z,10.44
2017-10-29T06:19:54.428Z,10.44
2017-10-29T06:21:03.642Z,10.47
2017-10-29T06:22:12.181Z,10.51
2017-10-29T06:23:21.055Z,10.51
2017-10-29T06:24:29.597Z,10.42
2017-10-29T06:25:38.134Z,10.52
2017-10-29T06:26:47.020Z,10.47
2017-10-29T06:27:55.564Z,10.46
2017-10-29T06:29:04.102Z,10.49
2017-10-29T06:30:12.643Z,10.47
2017-10-29T06:31:21.518Z,10.46
2017-10-29T06:32:30.394Z,10.42
2017-10-29T06:33:38.929Z,10.47
2017-10-29T06:34:47.467Z,10.44
2017-10-29T06:35:56.007Z,10.49
2017-10-29T06:37:04.885Z,10.42
2017-10-29T06:38:14.452Z,10.46
2017-10-29T06:39:22.993Z,10.44
2017-10-29T06:40:31.866Z,10.47
2017-10-29T06:41:41.084Z,10.49
2017-10-29T06:42:49.959Z,10.42
2017-10-29T06:43:58.838Z,10.46
2017-10-29T06:45:07.384Z,10.49
2017-10-29T06:46:16.605Z,10.52
2017-10-29T06:47:25.153Z,10.58
2017-10-29T06:48:33.687Z,10.65
2017-10-29T06:49:42.227Z,10.65
2017-10-29T06:50:51.103Z,10.7
2017-10-29T06:51:59.642Z,10.58
2017-10-29T06:53:08.181Z,10.57
2017-10-29T06:54:17.063Z,10.57
2017-10-29T06:55:26.627Z,10.61
2017-10-29T06:56:35.528Z,10.52
2017-10-29T06:57:44.042Z,10.46
2017-10-29T06:58:52.583Z,10.47
2017-10-29T07:00:01.462Z,10.49
2017-10-29T07:01:10.677Z,10.47
2017-10-29T07:02:19.886Z,10.52
2017-10-29T07:03:28.759Z,10.46
2017-10-29T07:04:37.730Z,10.54
2017-10-29T07:05:46.942Z,10.49
2017-10-29T07:06:55.819Z,10.44
2017-10-29T07:08:04.356Z,10.44
2017-10-29T07:09:13.230Z,10.36
2017-10-29T07:10:22.103Z,10.44
2017-10-29T07:11:30.642Z,10.42
2017-10-29T07:12:39.182Z,10.49
2017-10-29T07:13:47.726Z,10.57
2017-10-29T07:14:56.602Z,10.63
2017-10-29T07:16:05.474Z,10.67
2017-10-29T07:17:14.349Z,10.69
2017-10-29T07:18:23.228Z,10.69
2017-10-29T07:19:32.440Z,10.75
2017-10-29T07:20:41.326Z,10.76
2017-10-29T07:21:50.205Z,10.84
2017-10-29T07:22:58.743Z,10.83
2017-10-29T07:24:07.617Z,10.76
2017-10-29T07:25:16.828Z,10.77
2017-10-29T07:26:25.707Z,10.76
2017-10-29T07:27:34.920Z,10.76
2017-10-29T07:28:43.462Z,10.76
2017-10-29T07:29:52.003Z,10.77
2017-10-29T07:31:00.882Z,10.8
2017-10-29T07:32:09.763Z,10.84
2017-10-29T07:33:18.304Z,10.83
2017-10-29T07:34:26.844Z,10.72
2017-10-29T07:35:35.385Z,10.75
2017-10-29T07:36:44.263Z,10.79
2017-10-29T07:37:53.163Z,10.75
2017-10-29T07:39:02.038Z,10.7
2017-10-29T07:40:10.914Z,10.76
2017-10-29T07:41:20.223Z,10.76
2017-10-29T07:42:28.766Z,10.76
2017-10-29T07:43:37.661Z,10.77
2017-10-29T07:44:46.200Z,10.79
2017-10-29T07:45:54.742Z,10.67
2017-10-29T07:47:03.284Z,10.69
2017-10-29T07:48:12.161Z,10.75
2017-10-29T07:49:20.699Z,10.72
2017-10-29T07:50:29.574Z,10.7
2017-10-29T07:51:38.118Z,10.7
2017-10-29T07:52:47.004Z,10.73
2017-10-29T07:53:55.543Z,10.66
2017-10-29T07:55:04.414Z,10.66
2017-10-29T07:56:12.956Z,10.63
2017-10-29T07:57:21.496Z,10.72
2017-10-29T07:58:30.369Z,10.73
2017-10-29T07:59:39.248Z,10.7
2017-10-29T08:00:48.120Z,10.69
2017-10-29T08:01:57.001Z,10.7
2017-10-29T08:03:05.877Z,10.75
2017-10-29T08:04:14.417Z,10.72
2017-10-29T08:05:23.632Z,10.69
2017-10-29T08:06:32.505Z,10.79
2017-10-29T08:07:41.046Z,10.87
2017-10-29T08:08:49.925Z,10.9
2017-10-29T08:09:59.150Z,10.87
2017-10-29T08:11:08.393Z,11.03
2017-10-29T08:12:17.264Z,11
2017-10-29T08:13:26.479Z,10.94
2017-10-29T08:14:35.017Z,11.06
2017-10-29T08:15:44.230Z,11.02
2017-10-29T08:16:53.110Z,11.12
2017-10-29T08:18:01.654Z,11.2
2017-10-29T08:19:10.875Z,11.16
2017-10-29T08:20:19.751Z,11.13
2017-10-29T08:21:28.626Z,11.09
2017-10-29T08:22:37.499Z,11.09
2017-10-29T08:23:46.373Z,11
2017-10-29T08:24:55.589Z,11.1
2017-10-29T08:26:04.127Z,11.06
2017-10-29T08:27:13.009Z,11
2017-10-29T08:28:21.550Z,11.03
2017-10-29T08:29:30.426Z,11.05
2017-10-29T08:30:38.965Z,11.08
2017-10-29T08:31:47.838Z,11.13
2017-10-29T08:32:57.062Z,11.2
2017-10-29T08:34:05.600Z,11.23
2017-10-29T08:35:14.138Z,11.28
2017-10-29T08:36:23.403Z,11.31
2017-10-29T08:37:32.633Z,11.26
2017-10-29T08:38:41.871Z,11.34
2017-10-29T08:39:50.934Z,11.38
2017-10-29T08:40:59.819Z,11.39
2017-10-29T08:42:09.036Z,11.42
2017-10-29T08:43:18.260Z,11.34
2017-10-29T08:44:27.154Z,11.28
2017-10-29T08:45:36.398Z,11.34
2017-10-29T08:46:44.939Z,11.38
2017-10-29T08:47:53.824Z,11.33
2017-10-29T08:49:02.364Z,11.35
2017-10-29T08:50:10.904Z,11.38
2017-10-29T08:51:20.453Z,11.38
2017-10-29T08:52:29.668Z,11.38
2017-10-29T08:53:39.003Z,11.34
2017-10-29T08:54:47.885Z,11.39
2017-10-29T08:55:57.096Z,11.28
2017-10-29T08:57:05.637Z,11.24
2017-10-29T08:58:14.853Z,11.46
2017-10-29T08:59:23.844Z,11.42
2017-10-29T09:00:32.387Z,11.41
2017-10-29T09:01:41.602Z,11.51
2017-10-29T09:02:50.810Z,11.6
2017-10-29T09:03:59.685Z,11.66
2017-10-29T09:05:08.900Z,11.75
2017-10-29T09:06:17.441Z,11.68
2017-10-29T09:07:26.322Z,11.6
2017-10-29T09:08:35.203Z,11.6
2017-10-29T09:09:43.734Z,11.6
2017-10-29T09:10:52.611Z,11.52
2017-10-29T09:12:01.487Z,11.49
2017-10-29T09:13:10.695Z,11.59
2017-10-29T09:14:19.235Z,11.64
2017-10-29T09:15:27.775Z,11.52
2017-10-29T09:16:36.317Z,11.56
2017-10-29T09:17:44.855Z,11.57
2017-10-29T09:18:53.735Z,11.51
2017-10-29T09:20:02.610Z,11.56
2017-10-29T09:21:11.487Z,11.57
2017-10-29T09:22:20.024Z,11.68
2017-10-29T09:23:28.762Z,11.82
2017-10-29T09:24:37.301Z,11.94
2017-10-29T09:25:45.848Z,12.01
2017-10-29T09:26:54.725Z,12.18
2017-10-29T09:28:03.602Z,12.16
2017-10-29T09:29:13.163Z,12.05
2017-10-29T09:30:22.374Z,11.89
2017-10-29T09:31:31.257Z,11.85
2017-10-29T09:32:40.157Z,11.88
2017-10-29T09:33:48.700Z,11.78
2017-10-29T09:34:57.583Z,11.67
2017-10-29T09:36:06.469Z,11.75
2017-10-29T09:37:15.008Z,11.78
2017-10-29T09:38:23.885Z,11.89
2017-10-29T09:39:32.765Z,11.79
2017-10-29T09:40:41.641Z,11.94
2017-10-29T09:41:50.522Z,12.04
2017-10-29T09:42:59.783Z,12.13
2017-10-29T09:44:08.360Z,12.2
2017-10-29T09:45:17.240Z,12.13
2017-10-29T09:46:26.462Z,12.11
2017-10-29T09:47:35.006Z,11.91
2017-10-29T09:48:43.882Z,11.79
2017-10-29T09:49:52.428Z,11.66
2017-10-29T09:51:01.301Z,11.52
2017-10-29T09:52:10.522Z,11.49
2017-10-29T09:53:19.400Z,11.45
2017-10-29T09:54:27.940Z,11.24
2017-10-29T09:55:36.829Z,11.16
2017-10-29T09:56:45.372Z,11.09
2017-10-29T09:57:53.910Z,11.02
2017-10-29T09:59:02.449Z,10.98
2017-10-29T10:00:10.991Z,10.84
2017-10-29T10:01:19.532Z,10.77
2017-10-29T10:02:28.758Z,10.8
2017-10-29T10:03:37.631Z,10.75
2017-10-29T10:04:46.172Z,10.76
2017-10-29T10:05:55.386Z,10.75
2017-10-29T10:07:03.930Z,10.76
2017-10-29T10:08:13.144Z,10.67
2017-10-29T10:09:21.683Z,10.83
2017-10-29T10:10:31.233Z,10.77
2017-10-29T10:11:39.774Z,10.84
2017-10-29T10:12:48.313Z,10.87
2017-10-29T10:13:56.849Z,11
2017-10-29T10:15:05.388Z,11.05
2017-10-29T10:16:14.263Z,10.95
2017-10-29T10:17:23.136Z,11.09
2017-10-29T10:18:32.011Z,11.3
2017-10-29T10:19:41.730Z,11.26
2017-10-29T10:20:50.602Z,11.31
2017-10-29T10:21:59.142Z,11.43
2017-10-29T10:23:08.024Z,11.57
2017-10-29T10:24:17.237Z,11.68
2017-10-29T10:25:26.131Z,11.7
2017-10-29T10:26:34.670Z,11.68
2017-10-29T10:27:43.548Z,11.81
2017-10-29T10:28:52.086Z,11.91
2017-10-29T10:30:00.966Z,11.79
2017-10-29T10:31:09.842Z,11.89
2017-10-29T10:32:18.382Z,11.82
2017-10-29T10:33:26.931Z,11.75
2017-10-29T10:34:35.807Z,11.6
2017-10-29T10:35:44.700Z,11.57
2017-10-29T10:36:53.242Z,11.59
2017-10-29T10:38:01.785Z,11.45
2017-10-29T10:39:11.346Z,11.45
2017-10-29T10:40:20.244Z,11.41
2017-10-29T10:41:29.460Z,11.26
2017-10-29T10:42:38.335Z,11.24
2017-10-29T10:43:47.209Z,11.16
2017-10-29T10:44:55.749Z,11.1
2017-10-29T10:46:04.299Z,11.1
2017-10-29T10:47:13.519Z,10.97
2017-10-29T10:48:22.057Z,11.12
2017-10-29T10:49:30.598Z,11
2017-10-29T10:50:39.472Z,11.05
2017-10-29T10:51:48.360Z,11
2017-10-29T10:52:57.232Z,11.02
2017-10-29T10:54:05.769Z,11.08
2017-10-29T10:55:14.651Z,11.09
2017-10-29T10:56:23.864Z,11.13
2017-10-29T10:57:32.741Z,11.1
2017-10-29T10:58:41.633Z,11.09
2017-10-29T10:59:50.166Z,11.18
2017-10-29T11:00:59.379Z,11.21
2017-10-29T11:02:08.597Z,11.26
2017-10-29T11:03:17.809Z,11.33
2017-10-29T11:04:27.039Z,11.41
2017-10-29T11:05:35.583Z,11.49
2017-10-29T11:06:44.460Z,11.66
2017-10-29T11:07:53.335Z,11.63
2017-10-29T11:09:02.547Z,11.59
2017-10-29T11:10:11.089Z,11.76
2017-10-29T11:11:19.970Z,11.68
2017-10-29T11:12:28.844Z,11.66
2017-10-29T11:13:37.720Z,11.64
2017-10-29T11:14:46.262Z,11.67
2017-10-29T11:15:55.141Z,11.57
2017-10-29T11:17:04.016Z,11.57
2017-10-29T11:18:12.902Z,11.51
2017-10-29T11:19:21.438Z,11.57
2017-10-29T11:20:29.981Z,11.59
2017-10-29T11:21:38.520Z,11.53
2017-10-29T11:22:47.058Z,11.48
2017-10-29T11:23:55.934Z,11.46
2017-10-29T11:25:04.471Z,11.53
2017-10-29T11:26:13.352Z,11.52
2017-10-29T11:27:21.899Z,11.53
2017-10-29T11:28:30.432Z,11.53
2017-10-29T11:29:38.971Z,11.64
2017-10-29T11:30:48.521Z,11.67
2017-10-29T11:31:57.732Z,11.78
2017-10-29T11:33:06.608Z,11.82
2017-10-29T11:34:15.154Z,11.94
2017-10-29T11:35:24.369Z,11.91
2017-10-29T11:36:32.912Z,11.84
2017-10-29T11:37:41.798Z,11.82
2017-10-29T11:38:50.677Z,11.81
2017-10-29T11:39:59.221Z,11.67
2017-10-29T11:41:07.762Z,11.53
2017-10-29T11:42:16.642Z,11.52
2017-10-29T11:43:25.538Z,11.42
2017-10-29T11:44:34.394Z,11.39
2017-10-29T11:45:43.275Z,11.38
2017-10-29T11:46:51.817Z,11.28
2017-10-29T11:48:00.357Z,11.2
2017-10-29T11:49:08.896Z,11.08
2017-10-29T11:50:17.438Z,10.98
2017-10-29T11:51:26.314Z,11.05
2017-10-29T11:52:34.852Z,10.98
2017-10-29T11:53:43.727Z,10.85
2017-10-29T11:54:52.604Z,10.84
2017-10-29T11:56:01.143Z,10.76
2017-10-29T11:57:09.683Z,10.76
2017-10-29T11:58:18.894Z,10.77
2017-10-29T11:59:28.107Z,10.73
2017-10-29T12:00:36.979Z,10.76
2017-10-29T12:01:46.196Z,10.77
2017-10-29T12:02:55.072Z,10.83
2017-10-29T12:04:03.614Z,10.95
2017-10-29T12:05:12.493Z,10.91
2017-10-29T12:06:22.379Z,10.94
2017-10-29T12:07:30.920Z,10.94
2017-10-29T12:08:39.461Z,11.02
2017-10-29T12:09:48.553Z,10.95
2017-10-29T12:10:57.422Z,11.16
2017-10-29T12:12:06.296Z,11.15
2017-10-29T12:13:15.179Z,11.31
2017-10-29T12:14:24.056Z,11.39
2017-10-29T12:15:32.935Z,11.53
2017-10-29T12:16:41.809Z,11.6
2017-10-29T12:17:51.022Z,11.68
2017-10-29T12:19:00.234Z,11.75
2017-10-29T12:20:09.111Z,11.88
2017-10-29T12:21:17.647Z,11.88
2017-10-29T12:22:26.188Z,11.91
2017-10-29T12:23:34.729Z,11.94
2017-10-29T12:24:43.603Z,12.01
2017-10-29T12:25:52.486Z,12.01
2017-10-29T12:27:01.700Z,11.89
2017-10-29T12:28:10.578Z,11.63
2017-10-29T12:29:19.801Z,11.63
2017-10-29T12:30:28.678Z,11.42
2017-10-29T12:31:37.553Z,11.31
2017-10-29T12:32:46.429Z,11.3
2017-10-29T12:33:55.311Z,11.09
2017-10-29T12:35:04.860Z,11.09
2017-10-29T12:36:13.399Z,11.03
2017-10-29T12:37:22.274Z,11.06
2017-10-29T12:38:31.827Z,10.92
2017-10-29T12:39:40.372Z,10.8
2017-10-29T12:40:49.247Z,10.79
2017-10-29T12:41:58.124Z,10.76
2017-10-29T12:43:07.025Z,10.76
2017-10-29T12:44:15.545Z,10.7
2017-10-29T12:45:24.425Z,10.65
2017-10-29T12:46:32.954Z,10.67
2017-10-29T12:47:41.492Z,10.54
2017-10-29T12:48:50.705Z,10.57
2017-10-29T12:49:59.589Z,10.58
2017-10-29T12:51:09.149Z,10.52
2017-10-29T12:52:17.684Z,10.47
2017-10-29T12:53:26.221Z,10.49
2017-10-29T12:54:35.432Z,10.46
2017-10-29T12:55:44.675Z,10.49
2017-10-29T12:56:53.894Z,10.42
2017-10-29T12:58:02.437Z,10.49
2017-10-29T12:59:11.314Z,10.36
2017-10-29T13:00:19.856Z,10.35
2017-10-29T13:01:28.733Z,10.31
2017-10-29T13:02:37.604Z,10.36
2017-10-29T13:03:46.144Z,10.41
2017-10-29T13:04:55.020Z,10.32
2017-10-29T13:06:04.237Z,10.35
2017-10-29T13:07:13.445Z,10.21
2017-10-29T13:08:22.327Z,10.21
2017-10-29T13:09:31.554Z,10.38
2017-10-29T13:10:40.082Z,10.29
2017-10-29T13:11:48.949Z,10.28
2017-10-29T13:12:57.489Z,10.26
2017-10-29T13:14:06.034Z,10.25
2017-10-29T13:15:14.910Z,10.32
2017-10-29T13:16:24.127Z,10.33
2017-10-29T13:17:33.352Z,10.33
2017-10-29T13:18:41.888Z,10.33
2017-10-29T13:19:51.104Z,10.41
2017-10-29T13:21:00.666Z,10.35
2017-10-29T13:22:09.538Z,10.49
2017-10-29T13:23:18.079Z,10.63
2017-10-29T13:24:26.619Z,10.73
2017-10-29T13:25:35.491Z,10.77
2017-10-29T13:26:44.363Z,10.76
2017-10-29T13:27:52.903Z,10.79
2017-10-29T13:29:02.111Z,10.73
2017-10-29T13:30:10.651Z,10.8
2017-10-29T13:31:19.527Z,10.87
2017-10-29T13:32:28.401Z,10.77
2017-10-29T13:33:37.274Z,10.75
2017-10-29T13:34:46.151Z,10.76
2017-10-29T13:35:55.030Z,10.76
2017-10-29T13:37:03.571Z,10.7
2017-10-29T13:38:12.785Z,10.67
2017-10-29T13:39:21.661Z,10.65
2017-10-29T13:40:30.536Z,10.67
2017-10-29T13:41:39.751Z,10.59
2017-10-29T13:42:48.292Z,10.58
2017-10-29T13:43:57.175Z,10.52
2017-10-29T13:45:05.713Z,10.61
2017-10-29T13:46:14.928Z,10.61
2017-10-29T13:47:24.478Z,10.67
2017-10-29T13:48:33.689Z,10.69
2017-10-29T13:49:42.229Z,10.75
2017-10-29T13:50:51.105Z,10.73
2017-10-29T13:51:59.644Z,10.83
2017-10-29T13:53:08.183Z,10.88
2017-10-29T13:54:17.403Z,11.02
2017-10-29T13:55:25.940Z,10.98
2017-10-29T13:56:34.480Z,10.97
2017-10-29T13:57:43.357Z,11.1
2017-10-29T13:58:52.232Z,11.12
2017-10-29T14:00:00.771Z,11.15
2017-10-29T14:01:09.310Z,11.23
2017-10-29T14:02:17.852Z,11.28
2017-10-29T14:03:27.061Z,11.33
2017-10-29T14:04:35.942Z,11.41
2017-10-29T14:05:45.156Z,11.43
2017-10-29T14:06:53.695Z,11.46
2017-10-29T14:08:02.569Z,11.45
2017-10-29T14:09:11.113Z,11.48
2017-10-29T14:10:20.331Z,11.46
2017-10-29T14:11:28.875Z,11.57
2017-10-29T14:12:37.754Z,11.48
2017-10-29T14:13:46.633Z,11.48
2017-10-29T14:14:55.174Z,11.45
2017-10-29T14:16:03.713Z,11.52
2017-10-29T14:17:12.921Z,11.39
2017-10-29T14:18:21.461Z,11.43
2017-10-29T14:19:30.338Z,11.52
2017-10-29T14:20:38.881Z,11.46
2017-10-29T14:21:47.421Z,11.41
2017-10-29T14:22:56.299Z,11.43
2017-10-29T14:24:05.182Z,11.34
2017-10-29T14:25:14.058Z,11.26
2017-10-29T14:26:22.598Z,11.34
2017-10-29T14:27:31.139Z,11.26
2017-10-29T14:28:39.678Z,11.23
2017-10-29T14:29:48.563Z,11.24
2017-10-29T14:30:57.103Z,11.24
2017-10-29T14:32:05.985Z,11.24
2017-10-29T14:33:15.203Z,11.27
2017-10-29T14:34:23.745Z,11.26
2017-10-29T14:35:32.622Z,11.2
2017-10-29T14:36:41.161Z,11.18
2017-10-29T14:37:50.039Z,11.2
2017-10-29T14:38:58.578Z,11.21
2017-10-29T14:40:07.121Z,11.15
2017-10-29T14:41:16.333Z,11.1
2017-10-29T14:42:24.872Z,11.09
2017-10-29T14:43:34.084Z,11.12
2017-10-29T14:44:42.675Z,11.09
2017-10-29T14:45:51.552Z,11.05
2017-10-29T14:47:00.427Z,11.12
2017-10-29T14:48:09.316Z,11.09
2017-10-29T14:49:19.224Z,11.1